createdAt,value
2023-04-29T00:02:09.221Z,94.64
2023-04-29T00:04:41.454Z,93.85
2023-04-29T00:07:15.818Z,92.79
2023-04-29T00:09:47.797Z,91.64
2023-04-29T00:12:20.196Z,90.67
2023-04-29T00:14:52.811Z,90.51
2023-04-29T00:17:25.126Z,90.72
2023-04-29T00:20:19.068Z,90.00
2023-04-29T00:22:51.022Z,89.42
2023-04-29T00:25:23.367Z,89.22
2023-04-29T00:27:55.572Z,89.21
2023-04-29T00:30:27.617Z,89.17
2023-04-29T00:33:00.282Z,89.54
2023-04-29T00:35:33.014Z,89.88
2023-04-29T00:38:05.113Z,90.27
2023-04-29T00:40:37.626Z,90.06
2023-04-29T00:43:10.314Z,89.91
2023-04-29T00:45:42.475Z,90.26
2023-04-29T00:48:15.491Z,90.09
2023-04-29T00:50:47.945Z,90.53
2023-04-29T00:53:20.171Z,90.55
2023-04-29T00:55:54.143Z,91.03
2023-04-29T00:58:33.249Z,91.13
2023-04-29T01:01:06.027Z,91.86
2023-04-29T01:03:39.048Z,92.02
2023-04-29T01:06:31.402Z,91.42
2023-04-29T01:09:27.418Z,94.68
2023-04-29T01:12:09.744Z,95.16
2023-04-29T01:14:45.126Z,94.39
2023-04-29T01:17:23.256Z,95.58
2023-04-29T01:19:57.355Z,95.41
2023-04-29T01:22:29.995Z,96.74
2023-04-29T01:25:02.452Z,95.35
2023-04-29T01:27:43.051Z,97.37
2023-04-29T01:30:30.529Z,98.15
2023-04-29T01:33:12.894Z,97.84
2023-04-29T01:35:54.288Z,97.87
2023-04-29T01:38:35.855Z,98.92
2023-04-29T01:41:16.256Z,98.88
2023-04-29T01:43:52.493Z,99.84
2023-04-29T01:46:29.520Z,99.88
2023-04-29T01:49:03.661Z,99.97
2023-04-29T01:51:35.836Z,99.77
2023-04-29T01:54:07.968Z,99.85
2023-04-29T01:56:39.992Z,100.00
2023-04-29T01:59:34.769Z,100.00
2023-04-29T02:02:12.739Z,100.00
2023-04-29T02:04:51.025Z,100.00
2023-04-29T02:07:23.701Z,100.00
2023-04-29T02:09:56.542Z,100.00
2023-04-29T02:12:28.727Z,100.00
2023-04-29T02:15:01.121Z,100.00
2023-04-29T02:17:34.971Z,100.00
2023-04-29T02:20:08.121Z,100.00
2023-04-29T02:22:40.486Z,100.00
2023-04-29T02:25:13.711Z,100.00
2023-04-29T02:27:45.672Z,100.00
2023-04-29T02:30:17.837Z,100.00
2023-04-29T02:32:49.886Z,100.00
2023-04-29T02:35:21.941Z,100.00
2023-04-29T02:37:54.876Z,100.00
2023-04-29T02:40:27.513Z,100.00
2023-04-29T02:42:59.923Z,100.00
2023-04-29T02:45:31.560Z,100.00
2023-04-29T02:48:04.874Z,100.00
2023-04-29T02:50:37.147Z,100.00
2023-04-29T02:53:09.181Z,100.00
2023-04-29T02:55:41.250Z,100.00
2023-04-29T02:58:14.481Z,100.00
2023-04-29T03:00:47.042Z,100.00
2023-04-29T03:03:19.759Z,100.00
2023-04-29T03:05:52.232Z,100.00
2023-04-29T03:08:24.529Z,100.00
2023-04-29T03:10:56.584Z,100.00
2023-04-29T03:13:29.177Z,100.00
2023-04-29T03:16:02.022Z,100.00
2023-04-29T03:18:34.500Z,100.00
2023-04-29T03:21:08.563Z,100.00
2023-04-29T03:23:40.950Z,100.00
2023-04-29T03:26:13.543Z,100.00
2023-04-29T03:28:45.697Z,100.00
2023-04-29T03:31:17.784Z,100.00
2023-04-29T03:33:51.164Z,100.00
2023-04-29T03:36:23.354Z,100.00
2023-04-29T03:39:13.615Z,100.00
2023-04-29T03:41:45.712Z,100.00
2023-04-29T03:44:17.742Z,100.00
2023-04-29T03:46:49.914Z,100.00
2023-04-29T03:49:22.425Z,100.00
2023-04-29T03:51:54.654Z,100.00
2023-04-29T03:54:26.674Z,100.00
2023-04-29T03:56:58.672Z,100.00
2023-04-29T03:59:30.770Z,100.00
2023-04-29T04:02:03.081Z,100.00
2023-04-29T04:04:35.795Z,100.00
2023-04-29T04:07:07.863Z,100.00
2023-04-29T04:09:57.298Z,100.00
2023-04-29T04:12:29.426Z,100.00
2023-04-29T04:15:04.502Z,100.00
2023-04-29T04:17:36.527Z,100.00
2023-04-29T04:20:10.573Z,100.00
2023-04-29T04:22:42.638Z,100.00
2023-04-29T04:25:21.091Z,100.00
2023-04-29T04:27:54.691Z,100.00
2023-04-29T04:30:40.614Z,100.00
2023-04-29T04:33:12.642Z,100.00
2023-04-29T04:35:45.095Z,100.00
2023-04-29T04:38:17.729Z,100.00
2023-04-29T04:40:49.851Z,100.00
2023-04-29T04:43:38.464Z,100.00
2023-04-29T04:46:17.991Z,100.00
2023-04-29T04:49:00.044Z,100.00
2023-04-29T04:51:32.846Z,100.00
2023-04-29T04:54:04.892Z,100.00
2023-04-29T04:56:38.221Z,100.00
2023-04-29T04:59:11.588Z,100.00
2023-04-29T05:01:44.903Z,100.00
2023-04-29T05:04:17.320Z,100.00
2023-04-29T05:06:49.422Z,100.00
2023-04-29T05:09:24.091Z,100.00
2023-04-29T05:11:56.677Z,100.00
2023-04-29T05:14:29.022Z,100.00
2023-04-29T05:17:03.872Z,100.00
2023-04-29T05:19:36.776Z,100.00
2023-04-29T05:22:09.096Z,100.00
2023-04-29T05:24:41.046Z,100.00
2023-04-29T05:27:13.555Z,100.00
2023-04-29T05:29:45.728Z,100.00
2023-04-29T05:32:18.045Z,100.00
2023-04-29T05:34:50.990Z,100.00
2023-04-29T05:37:23.528Z,100.00
2023-04-29T05:40:24.860Z,100.00
2023-04-29T05:42:58.151Z,100.00
2023-04-29T05:45:30.795Z,100.00
2023-04-29T05:48:03.103Z,100.00
2023-04-29T05:50:36.398Z,99.94
2023-04-29T05:53:08.487Z,99.98
2023-04-29T05:55:45.245Z,99.85
2023-04-29T05:58:22.463Z,98.83
2023-04-29T06:00:55.401Z,97.30
2023-04-29T06:03:28.111Z,97.45
2023-04-29T06:06:15.830Z,98.82
2023-04-29T06:09:13.340Z,98.72
2023-04-29T06:11:53.534Z,96.30
2023-04-29T06:14:26.837Z,96.24
2023-04-29T06:16:59.544Z,97.59
2023-04-29T06:19:32.963Z,97.47
2023-04-29T06:22:05.198Z,98.66
2023-04-29T06:24:37.726Z,97.11
2023-04-29T06:27:10.389Z,98.73
2023-04-29T06:29:42.535Z,99.94
2023-04-29T06:32:15.116Z,99.48
2023-04-29T06:34:48.030Z,99.62
2023-04-29T06:37:43.209Z,99.86
2023-04-29T06:40:46.816Z,99.99
2023-04-29T06:43:27.022Z,99.52
2023-04-29T06:46:25.249Z,100.00
2023-04-29T06:49:07.774Z,100.00
2023-04-29T06:51:40.196Z,99.80
2023-04-29T06:54:12.877Z,100.00
2023-04-29T06:56:44.998Z,99.96
2023-04-29T06:59:17.616Z,100.00
2023-04-29T07:01:50.065Z,99.49
2023-04-29T07:04:26.102Z,97.74
2023-04-29T07:06:59.455Z,98.89
2023-04-29T07:09:34.081Z,96.54
2023-04-29T07:12:09.536Z,95.40
2023-04-29T07:14:41.928Z,94.31
2023-04-29T07:17:14.384Z,95.10
2023-04-29T07:19:47.243Z,96.01
2023-04-29T07:22:20.191Z,96.49
2023-04-29T07:24:58.221Z,97.63
2023-04-29T07:27:31.709Z,97.37
2023-04-29T07:30:04.766Z,95.66
2023-04-29T07:32:38.836Z,92.12
2023-04-29T07:35:11.955Z,93.20
2023-04-29T07:37:46.119Z,93.48
2023-04-29T07:40:18.093Z,92.55
2023-04-29T07:42:50.834Z,92.32
2023-04-29T07:45:24.227Z,89.11
2023-04-29T07:47:56.908Z,90.45
2023-04-29T07:50:29.093Z,90.94
2023-04-29T07:53:02.489Z,87.85
2023-04-29T07:55:34.652Z,86.34
2023-04-29T07:58:07.176Z,87.21
2023-04-29T08:00:39.230Z,87.68
2023-04-29T08:03:11.794Z,88.27
2023-04-29T08:05:45.470Z,88.30
2023-04-29T08:08:20.946Z,88.48
2023-04-29T08:10:53.025Z,87.93
2023-04-29T08:13:25.161Z,88.19
2023-04-29T08:15:57.166Z,88.06
2023-04-29T08:18:31.431Z,88.68
2023-04-29T08:21:04.074Z,88.97
2023-04-29T08:23:37.059Z,86.34
2023-04-29T08:26:11.276Z,87.13
2023-04-29T08:28:43.484Z,88.53
2023-04-29T08:31:21.812Z,90.15
2023-04-29T08:33:55.275Z,87.67
2023-04-29T08:36:30.259Z,83.07
2023-04-29T08:39:02.940Z,84.35
2023-04-29T08:41:38.419Z,85.06
2023-04-29T08:44:11.296Z,81.37
2023-04-29T08:46:45.192Z,82.60
2023-04-29T08:49:17.411Z,79.87
2023-04-29T08:51:52.015Z,80.20
2023-04-29T08:54:24.187Z,82.15
2023-04-29T08:56:58.580Z,81.53
2023-04-29T08:59:32.278Z,80.10
2023-04-29T09:02:07.948Z,80.35
2023-04-29T09:04:49.083Z,80.48
2023-04-29T09:07:22.085Z,80.66
2023-04-29T09:09:55.431Z,79.14
2023-04-29T09:12:27.651Z,82.13
2023-04-29T09:15:00.282Z,83.58
2023-04-29T09:17:46.725Z,84.05
2023-04-29T09:20:32.247Z,78.20
2023-04-29T09:23:06.154Z,79.70
2023-04-29T09:25:38.540Z,78.69
2023-04-29T09:28:19.592Z,78.03
2023-04-29T09:30:51.695Z,78.04
2023-04-29T09:33:24.044Z,77.44
2023-04-29T09:35:59.531Z,75.57
2023-04-29T09:38:31.675Z,77.02
2023-04-29T09:41:18.338Z,79.45
2023-04-29T09:44:06.855Z,78.71
2023-04-29T09:46:39.803Z,79.89
2023-04-29T09:52:18.993Z,79.67
2023-04-29T09:54:51.540Z,77.53
2023-04-29T09:57:25.983Z,77.66
2023-04-29T09:59:58.038Z,75.14
2023-04-29T10:02:31.207Z,76.30
2023-04-29T10:05:04.167Z,75.28
2023-04-29T10:07:36.483Z,74.22
2023-04-29T10:10:11.927Z,76.09
2023-04-29T10:12:46.639Z,75.55
2023-04-29T10:15:24.749Z,73.51
2023-04-29T10:18:00.123Z,74.96
2023-04-29T10:20:35.038Z,77.49
2023-04-29T10:23:07.686Z,77.17
2023-04-29T10:25:42.567Z,75.06
2023-04-29T10:28:17.150Z,72.77
2023-04-29T10:30:55.946Z,77.30
2023-04-29T10:33:32.573Z,80.12
2023-04-29T10:36:05.456Z,78.64
2023-04-29T10:38:42.358Z,75.66
2023-04-29T10:41:24.914Z,75.31
2023-04-29T10:43:57.748Z,73.70
2023-04-29T10:46:30.551Z,75.97
2023-04-29T10:49:05.025Z,76.77
2023-04-29T10:51:42.192Z,74.13
2023-04-29T10:54:17.004Z,74.68
2023-04-29T10:56:52.996Z,77.11
2023-04-29T10:59:45.507Z,76.71
2023-04-29T11:02:17.666Z,77.63
2023-04-29T11:05:13.411Z,78.29
2023-04-29T11:07:47.013Z,77.02
2023-04-29T11:10:19.375Z,77.56
2023-04-29T11:13:11.355Z,76.13
2023-04-29T11:15:43.918Z,76.37
2023-04-29T11:18:16.294Z,76.21
2023-04-29T11:21:16.800Z,76.37
2023-04-29T11:23:49.219Z,78.73
2023-04-29T11:26:22.650Z,79.48
2023-04-29T11:28:53.451Z,80.84
2023-04-29T11:31:32.200Z,80.28
2023-04-29T11:34:05.821Z,78.38
2023-04-29T11:36:36.224Z,79.42
2023-04-29T11:39:08.582Z,81.24
2023-04-29T11:41:41.567Z,81.06
2023-04-29T11:44:15.639Z,80.44
2023-04-29T11:46:47.961Z,80.33
2023-04-29T11:49:20.520Z,80.69
2023-04-29T11:51:54.026Z,81.33
2023-04-29T11:54:29.420Z,80.33
2023-04-29T11:57:04.516Z,80.05
2023-04-29T11:59:36.778Z,80.12
2023-04-29T12:02:13.406Z,78.62
2023-04-29T12:04:52.325Z,78.89
2023-04-29T12:07:25.008Z,79.98
2023-04-29T12:09:58.513Z,82.25
2023-04-29T12:12:32.061Z,79.03
2023-04-29T12:15:05.717Z,79.21
2023-04-29T12:17:38.090Z,78.73
2023-04-29T12:20:12.123Z,79.34
2023-04-29T12:22:46.760Z,80.30
2023-04-29T12:25:19.579Z,81.55
2023-04-29T12:27:53.250Z,81.75
2023-04-29T12:30:25.314Z,79.48
2023-04-29T12:32:58.370Z,80.37
2023-04-29T12:35:31.971Z,79.37
2023-04-29T12:38:04.391Z,77.97
2023-04-29T12:40:38.507Z,79.42
2023-04-29T12:43:14.490Z,78.92
2023-04-29T12:45:47.008Z,78.30
2023-04-29T12:48:26.664Z,77.63
2023-04-29T12:51:07.276Z,76.43
2023-04-29T12:53:40.470Z,77.37
2023-04-29T12:56:13.521Z,74.60
2023-04-29T12:58:45.525Z,75.39
2023-04-29T13:01:18.745Z,77.31
2023-04-29T13:03:51.988Z,77.51
2023-04-29T13:06:22.476Z,78.58
2023-04-29T13:08:54.966Z,80.95
2023-04-29T13:11:32.542Z,76.00
2023-04-29T13:14:07.058Z,75.82
2023-04-29T13:16:39.108Z,77.70
2023-04-29T13:19:29.553Z,79.22
2023-04-29T13:22:03.397Z,77.47
2023-04-29T13:24:36.949Z,79.89
2023-04-29T13:27:09.285Z,79.68
2023-04-29T13:29:41.537Z,79.02
2023-04-29T13:32:13.718Z,77.51
2023-04-29T13:34:47.256Z,78.50
2023-04-29T13:37:20.461Z,77.94
2023-04-29T13:39:57.190Z,79.14
2023-04-29T13:42:30.179Z,78.81
2023-04-29T13:45:04.334Z,79.04
2023-04-29T13:47:56.451Z,80.51
2023-04-29T13:51:09.656Z,80.46
2023-04-29T13:53:50.040Z,78.11
2023-04-29T14:03:59.190Z,82.42
2023-04-29T14:06:33.426Z,79.01
2023-04-29T14:09:05.638Z,78.04
2023-04-29T14:11:37.869Z,81.02
2023-04-29T14:14:09.881Z,83.47
2023-04-29T14:16:42.328Z,81.01
2023-04-29T14:19:14.569Z,82.71
2023-04-29T14:21:46.757Z,85.15
2023-04-29T14:24:19.019Z,85.33
2023-04-29T14:26:53.545Z,82.40
2023-04-29T14:29:27.355Z,84.48
2023-04-29T14:31:59.737Z,88.89
2023-04-29T14:34:31.857Z,91.15
2023-04-29T14:37:04.768Z,87.44
2023-04-29T14:39:38.400Z,88.05
2023-04-29T14:42:10.767Z,89.84
2023-04-29T14:44:43.390Z,86.41
2023-04-29T14:47:16.661Z,84.63
2023-04-29T14:49:48.948Z,84.36
2023-04-29T14:52:21.425Z,87.00
2023-04-29T14:54:54.291Z,86.00
2023-04-29T14:57:26.890Z,88.06
2023-04-29T14:59:59.022Z,86.84
2023-04-29T15:02:32.718Z,83.35
2023-04-29T15:05:05.476Z,84.93
2023-04-29T15:07:37.565Z,85.81
2023-04-29T15:10:11.554Z,86.58
2023-04-29T15:12:43.979Z,86.57
2023-04-29T15:15:16.202Z,85.17
2023-04-29T15:17:48.608Z,85.33
2023-04-29T15:20:20.688Z,87.36
2023-04-29T15:22:52.764Z,87.08
2023-04-29T15:25:26.655Z,84.11
2023-04-29T15:27:59.721Z,85.23
2023-04-29T15:30:35.949Z,84.89
2023-04-29T15:33:08.344Z,85.87
2023-04-29T15:35:41.378Z,85.35
2023-04-29T15:38:14.308Z,84.29
2023-04-29T15:40:46.740Z,87.10
2023-04-29T15:43:18.836Z,89.70
2023-04-29T15:45:51.799Z,93.62
2023-04-29T15:48:35.577Z,95.19
2023-04-29T15:51:16.604Z,95.36
2023-04-29T15:53:52.976Z,96.02
2023-04-29T15:56:31.020Z,98.46
2023-04-29T15:59:04.109Z,100.00
2023-04-29T16:01:36.721Z,100.00
2023-04-29T16:04:10.130Z,100.00
2023-04-29T16:06:44.175Z,100.00
2023-04-29T16:09:17.106Z,100.00
2023-04-29T16:11:49.957Z,97.88
2023-04-29T16:14:25.248Z,97.70
2023-04-29T16:16:58.198Z,99.86
2023-04-29T16:19:30.656Z,100.00
2023-04-29T16:22:03.473Z,100.00
2023-04-29T16:24:36.140Z,100.00
2023-04-29T16:27:09.648Z,100.00
2023-04-29T16:29:39.903Z,100.00
2023-04-29T16:32:12.047Z,100.00
2023-04-29T16:34:44.085Z,100.00
2023-04-29T16:37:17.581Z,100.00
2023-04-29T16:39:47.818Z,100.00
2023-04-29T16:42:19.896Z,100.00
2023-04-29T16:44:52.171Z,100.00
2023-04-29T16:47:25.806Z,100.00
2023-04-29T16:49:58.313Z,100.00
2023-04-29T16:52:30.741Z,100.00
2023-04-29T16:55:06.192Z,100.00
2023-04-29T16:57:38.625Z,100.00
2023-04-29T17:00:15.161Z,100.00
2023-04-29T17:02:49.115Z,100.00
2023-04-29T17:05:23.713Z,100.00
2023-04-29T17:07:56.275Z,100.00
2023-04-29T17:10:30.453Z,100.00
2023-04-29T17:13:06.150Z,100.00
2023-04-29T17:15:39.780Z,100.00
2023-04-29T17:18:12.961Z,100.00
2023-04-29T17:20:48.780Z,100.00
2023-04-29T17:23:24.689Z,100.00
2023-04-29T17:25:57.398Z,100.00
2023-04-29T17:28:31.784Z,100.00
2023-04-29T17:31:03.997Z,100.00
2023-04-29T17:33:36.222Z,100.00
2023-04-29T17:36:09.748Z,100.00
2023-04-29T17:38:44.560Z,100.00
2023-04-29T17:41:17.437Z,100.00
2023-04-29T17:43:50.355Z,100.00
2023-04-29T17:46:23.199Z,100.00
2023-04-29T17:48:55.801Z,100.00
2023-04-29T17:51:36.633Z,100.00
2023-04-29T17:54:11.753Z,100.00
2023-04-29T17:56:45.249Z,100.00
2023-04-29T17:59:19.822Z,100.00
2023-04-29T18:01:56.070Z,100.00
2023-04-29T18:04:30.708Z,100.00
2023-04-29T18:07:06.253Z,100.00
2023-04-29T18:09:40.734Z,100.00
2023-04-29T18:12:16.809Z,100.00
2023-04-29T18:14:52.337Z,100.00
2023-04-29T18:17:26.709Z,100.00
2023-04-29T18:20:02.956Z,100.00
2023-04-29T18:22:38.588Z,100.00
2023-04-29T18:25:14.456Z,100.00
2023-04-29T18:27:49.305Z,100.00
2023-04-29T18:30:23.758Z,100.00
2023-04-29T18:32:58.022Z,100.00
2023-04-29T18:35:32.446Z,100.00
2023-04-29T18:38:11.279Z,100.00
2023-04-29T18:40:46.184Z,100.00
2023-04-29T18:43:25.395Z,100.00
2023-04-29T18:46:01.307Z,100.00
2023-04-29T18:48:40.996Z,100.00
2023-04-29T18:51:17.862Z,100.00
2023-04-29T18:53:54.085Z,100.00
2023-04-29T18:56:28.347Z,100.00
2023-04-29T18:59:02.448Z,100.00
2023-04-29T19:01:37.124Z,100.00
2023-04-29T19:04:12.372Z,100.00
2023-04-29T19:06:46.511Z,100.00
2023-04-29T19:09:22.363Z,100.00
2023-04-29T19:11:56.789Z,100.00
2023-04-29T19:14:30.636Z,100.00
2023-04-29T19:17:04.516Z,100.00
2023-04-29T19:19:39.036Z,100.00
2023-04-29T19:22:14.491Z,100.00
2023-04-29T19:24:49.281Z,100.00
2023-04-29T19:27:21.779Z,100.00
2023-04-29T19:29:56.552Z,100.00
2023-04-29T19:32:30.406Z,100.00
2023-04-29T19:35:04.259Z,100.00
2023-04-29T19:37:36.599Z,100.00
2023-04-29T19:40:58.265Z,100.00
2023-04-29T19:43:30.504Z,100.00
2023-04-29T19:46:03.143Z,100.00
2023-04-29T19:48:36.092Z,100.00
2023-04-29T19:51:09.406Z,100.00
2023-04-29T19:53:40.608Z,100.00
2023-04-29T19:56:12.728Z,100.00
2023-04-29T19:58:44.949Z,100.00
2023-04-29T20:01:16.941Z,100.00
2023-04-29T20:03:49.942Z,100.00
2023-04-29T20:06:22.473Z,100.00
2023-04-29T20:08:54.637Z,100.00
2023-04-29T20:11:30.033Z,100.00
2023-04-29T20:14:03.218Z,100.00
2023-04-29T20:16:36.487Z,100.00
2023-04-29T20:19:07.021Z,100.00
2023-04-29T20:21:40.672Z,100.00
2023-04-29T20:24:12.885Z,100.00
2023-04-29T20:26:45.306Z,100.00
2023-04-29T20:29:17.314Z,100.00
2023-04-29T20:31:49.703Z,100.00
2023-04-29T20:34:21.953Z,100.00
2023-04-29T20:36:54.224Z,100.00
2023-04-29T20:39:28.902Z,100.00
2023-04-29T20:42:03.401Z,100.00
2023-04-29T20:44:38.789Z,100.00
2023-04-29T20:47:11.396Z,100.00
2023-04-29T20:49:43.536Z,100.00
2023-04-29T20:52:15.877Z,100.00
2023-04-29T20:54:48.006Z,100.00
2023-04-29T20:57:20.056Z,100.00
2023-04-29T20:59:52.938Z,100.00
2023-04-29T21:02:25.617Z,100.00
2023-04-29T21:04:57.923Z,100.00
2023-04-29T21:07:30.128Z,100.00
2023-04-29T21:10:04.622Z,100.00
2023-04-29T21:12:36.679Z,100.00
2023-04-29T21:15:10.226Z,100.00
2023-04-29T21:17:43.808Z,100.00
2023-04-29T21:20:17.551Z,100.00
2023-04-29T21:22:49.428Z,100.00
2023-04-29T21:25:21.560Z,100.00
2023-04-29T21:27:53.815Z,100.00
2023-04-29T21:30:26.186Z,100.00
2023-04-29T21:32:58.756Z,100.00
2023-04-29T21:35:31.245Z,100.00
2023-04-29T21:38:03.455Z,100.00
2023-04-29T21:40:35.415Z,100.00
2023-04-29T21:43:07.788Z,100.00
2023-04-29T21:45:40.144Z,100.00
2023-04-29T21:48:18.834Z,100.00
2023-04-29T21:50:51.305Z,100.00
2023-04-29T21:53:23.448Z,100.00
2023-04-29T21:55:56.978Z,100.00
2023-04-29T21:58:27.247Z,100.00
2023-04-29T22:01:01.928Z,100.00
2023-04-29T22:03:35.242Z,100.00
2023-04-29T22:06:07.663Z,100.00
2023-04-29T22:08:39.745Z,100.00
2023-04-29T22:11:11.762Z,100.00
2023-04-29T22:13:45.610Z,100.00
2023-04-29T22:16:18.960Z,100.00
2023-04-29T22:18:49.423Z,100.00
2023-04-29T22:21:21.814Z,100.00
2023-04-29T22:23:53.842Z,100.00
2023-04-29T22:26:25.955Z,100.00
2023-04-29T22:28:57.964Z,100.00
2023-04-29T22:31:34.489Z,100.00
2023-04-29T22:34:08.664Z,100.00
2023-04-29T22:36:41.309Z,100.00
2023-04-29T22:39:13.389Z,100.00
2023-04-29T22:41:45.501Z,100.00
2023-04-29T22:44:17.436Z,100.00
2023-04-29T22:46:49.737Z,100.00
2023-04-29T22:49:21.888Z,100.00
2023-04-29T22:51:54.001Z,100.00
2023-04-29T22:54:26.105Z,100.00
2023-04-29T22:56:59.035Z,100.00
2023-04-29T22:59:31.687Z,100.00
2023-04-29T23:02:04.049Z,100.00
2023-04-29T23:04:36.726Z,100.00
2023-04-29T23:07:11.377Z,100.00
2023-04-29T23:09:44.255Z,100.00
2023-04-29T23:12:16.783Z,100.00
2023-04-29T23:14:48.997Z,100.00
2023-04-29T23:17:21.064Z,100.00
2023-04-29T23:19:53.665Z,100.00
2023-04-29T23:22:26.041Z,100.00
2023-04-29T23:24:58.074Z,100.00
2023-04-29T23:27:30.144Z,100.00
2023-04-29T23:30:02.936Z,100.00
2023-04-29T23:32:37.258Z,100.00
2023-04-29T23:35:11.644Z,100.00
2023-04-29T23:37:43.838Z,100.00
2023-04-29T23:40:17.876Z,100.00
2023-04-29T23:42:49.958Z,100.00
2023-04-29T23:45:21.981Z,100.00
2023-04-29T23:47:54.066Z,100.00
2023-04-29T23:50:26.205Z,100.00
2023-04-29T23:52:59.055Z,100.00
2023-04-29T23:55:31.856Z,100.00
2023-04-29T23:58:03.825Z,100.00
